Airfield :
LOGIN :

Register | Disclaimer

   EN    FR    IT 

 










Legend :    VFR   Marginal VFR   IFR   Intensive IFR   Very Intensive IFR
Visi :
Ceiling :
>= 8 km
>= 3000ft
5 to 8 km
1000 to 3000 ft
1500m to 5 km
500 to 1000 ft
800 to 1500m
200 to 500 ft
< 800m
< 200 ft
Symbols :   Thunderstorms  Fog  Heavy snow  Heavy precipitations  Wind > 20 kt
SIGMETs :     Misc.  Thunderstorms  Icing  Turbulence  Mountain Waves  Volcanic Ashes






- Airport Elevation : 640 ft
- IATA code : AOC


EDAC - Altenburg-Nobitz

CURRENT METAR :
  • 221220Z 31009KT 9999 BKN049 09/M01 Q1021

EXPIRED METARs :
  • 221150Z 29011KT 250V330 9999 BKN048 09/M01 Q1021
  • 221120Z 28010KT 240V320 9999 BKN046 08/M02 Q1021
  • 221050Z 29010KT 270V340 9999 BKN044 07/M02 Q1021
  • 221020Z 30010KT 270V330 9999 BKN042 07/M02 Q1021
  • 220950Z VRB10KT 9999 BKN040 06/M02 Q1021

TAF TAF EDAC
Valid from the 22 at 12:00 until the 22 at 21:00 UTC


221100Z 2212/2221 30011KT 9999 BKN035



MET'MAP, your aeronautical weather chart ! - Copyright ORBIFLY December 2007 - Disclaimer

ORBIFLY MET'MAP TEAM :

Programming & Development : Alexandra Zaïnal
Concept & original design : Baudouin d'Aumeries
Assistance for programming : Marc-Olivier Méhu
Technical & hardware support : Manuel Goepfert

Contact : metmap@orbifly.com




SOURCES & CREDITS :

   NOAA